Latest Coastal Weather Observations for Smithton

IDT60701

Issued at 6:52 pm EST Saturday 24 June 2017 (issued every 10 minutes, with the page automatically refreshed every 10 minutes)

About coastal observations | Map of coastal stations | Coastal observations for TAS | Marine services | Other Formats
Station Details ID: 091292 Name: SMITHTON AERODROME Lat: -40.83 Lon: 145.08 Height: 7.5 m
Data from the previous 72 hours. | See also: Recent months at Smithton
Date/Time
EST
Temp
°C
Wind Pressure Rain since
9am
mm
Weather Cloud Vis
km
Sea
Height
m
Swell
Dir  Spd
kts
Gust
kts
hPa Trend Height
m
Period
s
Dir
24/06:30pm 5.9 W 3 4 1014.0 - 0.4 - - - - - - -
24/06:00pm 6.2 W 5 5 1014.0 - 0.4 - - - - - - -
24/05:30pm 6.7 W 6 8 1013.8 - 0.4 - - - - - - -
24/05:00pm 7.1 W 5 7 1014.0 - 0.4 - - - - - - -
24/04:30pm 8.1 WSW 7 9 1013.9 - 0.4 - - - - - - -
24/04:00pm 8.7 W 8 10 1013.9 - 0.2 - - - - - - -
24/03:30pm 8.5 W 10 15 1013.9 - 0.2 - - - - - - -
24/03:00pm 9.4 W 9 11 1013.8 - 0.2 - - - - - - -
24/02:30pm 9.8 W 9 13 1013.7 - 0.2 - - - - - - -
24/02:00pm 10.3 W 10 15 1013.7 - 0.2 - - - - - - -
24/01:30pm 9.9 WSW 10 14 1013.8 - 0.2 - - - - - - -
24/01:00pm 10.9 WSW 10 14 1013.9 - 0.0 - - - - - - -
24/12:30pm 9.8 WSW 14 21 1014.4 - 0.0 - - - - - - -
24/12:00pm 10.0 W 12 16 1014.5 - 0.0 - - - - - - -
24/11:30am 10.4 WSW 10 13 1014.9 - 0.0 - - - - - - -
24/11:00am 9.7 W 10 13 1015.1 - 0.0 - - - - - - -
24/10:30am 8.5 WSW 12 15 1015.5 - 0.0 - - - - - - -
24/10:00am 8.0 SW 9 11 1015.3 - 0.0 - - - - - - -
24/09:30am 7.4 SW 10 14 1015.2 - 0.0 - - - - - - -
24/09:00am 5.9 WSW 7 11 1015.0 - 2.8 - - - - - - -
24/08:30am 6.1 WSW 9 12 1015.1 - 2.8 - - - - - - -
24/08:00am 5.3 SW 10 13 1014.5 - 2.6 - - - - - - -
24/07:30am 5.6 SW 11 15 1014.4 - 2.6 - - - - - - -
24/07:00am 4.4 W 7 9 1014.1 - 2.6 - - - - - - -
24/06:30am 4.3 W 7 8 1013.5 - 2.6 - - - - - - -
24/06:00am 4.9 W 9 11 1013.5 - 2.6 - - - - - - -
24/05:30am 5.0 WSW 10 12 1013.2 - 2.6 - - - - - - -
24/05:00am 4.7 WSW 11 13 1012.9 - 2.6 - - - - - - -
24/04:42am 5.7 WSW 15 23 1013.0 - 2.6 - - - - - - -
24/04:30am 5.3 W 10 13 1013.0 - 2.6 - - - - - - -
24/04:00am 5.7 WSW 12 15 1012.9 - 2.6 - - - - - - -
24/03:30am 6.4 WSW 20 28 1013.1 - 2.6 - - - - - - -
24/03:23am 6.1 WSW 20 27 1012.9 - 2.6 - - - - - - -
24/03:00am 4.9 W 9 11 1012.5 - 2.6 - - - - - - -
24/02:30am 6.6 W 18 29 1012.3 - 2.6 - - - - - - -
24/02:26am 6.6 W 16 29 1012.2 - 2.6 - - - - - - -
24/02:25am 6.4 W 15 23 1012.3 - 2.6 - - - - - - -
24/02:00am 3.7 W 9 11 1012.1 - 2.6 - - - - - - -
24/01:30am 3.6 WSW 5 9 1011.9 - 2.6 - - - - - - -
24/01:00am 5.5 WSW 10 13 1011.7 - 2.6 - - - - - - -
24/12:30am 5.2 WSW 9 12 1011.8 - 2.6 - - - - - - -
24/12:00am 5.6 WSW 10 13 1011.7 - 2.6 - - - - - - -
 
Date/Time
EST
Temp
°C
Wind Pressure Rain since
9am
mm
Weather Cloud Vis
km
Sea
Height
m
Swell
Dir  Spd
kts
Gust
kts
hPa Trend Height
m
Period
s
Dir
23/11:30pm 6.1 WSW 12 17 1011.4 - 2.6 - - - - - - -
23/11:00pm 5.8 SW 13 16 1011.2 - 2.6 - - - - - - -
23/10:30pm 6.3 SW 12 22 1011.2 - 2.6 - - - - - - -
23/10:00pm 5.4 SW 8 9 1010.7 - 2.6 - - - - - - -
23/09:30pm 6.5 WSW 14 18 1010.6 - 2.6 - - - - - - -
23/09:16pm 6.9 WSW 15 25 1010.3 - 2.6 - - - - - - -
23/09:00pm 6.1 WSW 11 14 1010.0 - 2.6 - - - - - - -
23/08:30pm 6.8 SW 13 18 1009.7 - 2.6 - - - - - - -
23/08:00pm 6.8 WSW 10 13 1009.1 - 2.6 - - - - - - -
23/07:30pm 7.3 SW 12 16 1008.9 - 2.6 - - - - - - -
23/07:00pm 7.5 SW 16 21 1009.0 - 2.4 - - - - - - -
23/06:50pm 7.5 SW 16 26 1008.7 - 2.4 - - - - - - -
23/06:30pm 7.7 SW 20 27 1008.6 - 2.4 - - - - - - -
23/06:03pm 8.2 SW 20 30 1007.7 - 2.2 - - - - - - -
23/06:00pm 8.4 SW 19 26 1007.7 - 2.2 - - - - - - -
23/05:30pm 8.9 SW 24 34 1007.0 - 2.2 - - - - - - -
23/05:23pm 9.5 WSW 21 31 1006.7 - 2.2 - - - - - - -
23/05:00pm 10.2 WSW 17 23 1006.3 - 2.0 - - - - - - -
23/04:30pm 10.8 WSW 18 24 1005.9 - 2.0 - - - - - - -
23/04:00pm 11.0 WSW 18 24 1006.2 - 2.0 - - - - - - -
23/03:45pm 11.2 WSW 15 26 1006.1 - 1.8 - - - - - - -
23/03:30pm 11.2 WSW 18 24 1006.1 - 1.8 - - - - - - -
23/03:07pm 11.1 W 21 31 1006.5 - 1.4 - - - - - - -
23/03:00pm 11.3 W 22 31 1006.5 - 0.8 - - - - - - -
23/02:55pm 12.3 W 21 31 1006.2 - 0.6 - - - - - - -
23/02:33pm 13.7 WNW 17 27 1006.0 - 0.4 - - - - - - -
23/02:30pm 13.5 WNW 18 27 1006.1 - 0.4 - - - - - - -
23/02:00pm 14.3 NW 20 26 1006.6 - 0.4 - - - - - - -
23/01:30pm 13.7 NW 19 27 1007.1 - 0.4 - - - - - - -
23/01:09pm 13.4 WNW 15 25 1007.5 - 0.4 - - - - - - -
23/01:00pm 13.4 NW 16 20 1007.7 - 0.4 - - - - - - -
23/12:30pm 13.1 WNW 17 24 1008.5 - 0.0 - - - - - - -
23/12:00pm 13.3 WNW 15 23 1009.1 - 0.0 - - - - - - -
23/11:30am 13.9 NW 12 16 1009.7 - 0.0 - - - - - - -
23/11:00am 12.3 NW 17 23 1010.4 - 0.0 - - - - - - -
23/10:30am 13.4 NW 17 23 1010.8 - 0.0 - - - - - - -
23/10:00am 13.3 NW 15 22 1011.3 - 0.0 - - - - - - -
23/09:30am 13.4 NW 17 25 1011.8 - 0.0 - - - - - - -
23/09:00am 12.8 NW 13 19 1012.1 - 2.4 - - - - - - -
23/08:30am 12.2 NW 12 16 1012.3 - 2.4 - - - - - - -
23/08:00am 11.2 NW 10 13 1012.6 - 2.4 - - - - - - -
23/07:30am 11.3 NW 11 16 1012.8 - 2.4 - - - - - - -
23/07:00am 11.0 NW 8 12 1013.0 - 2.4 - - - - - - -
23/06:30am 11.6 NW 11 14 1013.1 - 2.4 - - - - - - -
23/06:00am 11.4 NW 8 10 1013.2 - 2.4 - - - - - - -
23/05:30am 11.6 WNW 9 12 1013.4 - 2.4 - - - - - - -
23/05:00am 11.5 WNW 10 14 1013.7 - 2.4 - - - - - - -
23/04:30am 11.8 WNW 10 13 1014.0 - 2.4 - - - - - - -
23/04:00am 12.2 W 11 16 1014.4 - 2.4 - - - - - - -
23/03:30am 12.2 WNW 14 18 1014.7 - 2.4 - - - - - - -
23/03:00am 12.5 NW 16 20 1014.9 - 2.4 - - - - - - -
23/02:30am 12.4 NW 12 17 1015.1 - 2.4 - - - - - - -
23/02:00am 12.2 NNW 10 13 1015.2 - 2.2 - - - - - - -
23/01:30am 12.2 NNW 9 12 1015.7 - 2.2 - - - - - - -
23/01:00am 12.2 NNW 10 14 1016.3 - 2.2 - - - - - - -
23/12:30am 12.1 NNW 9 14 1016.7 - 2.0 - - - - - - -
23/12:00am 11.6 NNW 9 14 1017.3 - 1.6 - - - - - - -
 
Date/Time
EST
Temp
°C
Wind Pressure Rain since
9am
mm
Weather Cloud Vis
km
Sea
Height
m
Swell
Dir  Spd
kts
Gust
kts
hPa Trend Height
m
Period
s
Dir
22/11:30pm 10.5 NNW 6 8 1017.9 - 1.6 - - - - - - -
22/11:00pm 9.6 NNW 2 5 1018.3 - 1.4 - - - - - - -
22/10:30pm 9.9 NNW 2 4 1018.7 - 1.2 - - - - - - -
22/10:00pm 10.5 NNW 4 7 1019.0 - 1.2 - - - - - - -
22/09:30pm 9.7 SSW 3 6 1019.5 - 0.8 - - - - - - -
22/09:00pm 8.5 NNW 3 4 1019.7 - 0.8 - - - - - - -
22/08:30pm 8.4 CALM 0 0 1020.0 - 0.6 - - - - - - -
22/08:00pm 8.8 NNW 3 4 1020.3 - 0.6 - - - - - - -
22/07:30pm 8.7 NNW 4 6 1020.6 - 0.6 - - - - - - -
22/07:00pm 8.6 NNW 3 4 1020.7 - 0.6 - - - - - - -
22/06:30pm 8.9 NNW 6 7 1020.6 - 0.6 - - - - - - -
22/06:00pm 9.5 NNW 4 7 1021.2 - 0.6 - - - - - - -
22/05:30pm 9.8 CALM 0 0 1021.5 - 0.4 - - - - - - -
22/05:00pm 10.0 CALM 0 0 1021.7 - 0.4 - - - - - - -
22/04:30pm 10.3 NNW 5 7 1021.9 - 0.4 - - - - - - -
22/04:00pm 10.4 NNW 7 8 1022.2 - 0.2 - - - - - - -
22/03:30pm 10.9 N 8 10 1022.4 - 0.0 - - - - - - -
22/03:00pm 10.7 NNW 9 11 1022.5 - 0.0 - - - - - - -
22/02:30pm 11.2 NNW 8 10 1022.8 - 0.0 - - - - - - -
22/02:00pm 10.8 WNW 9 11 1023.2 - 0.0 - - - - - - -
22/01:30pm 11.3 NNW 9 13 1023.5 - 0.0 - - - - - - -
22/01:00pm 11.4 NNW 10 13 1024.1 - 0.0 - - - - - - -
22/12:30pm 11.0 ENE 5 7 1024.6 - 0.0 - - - - - - -
22/12:00pm 10.5 ENE 7 10 1025.1 - 0.0 - - - - - - -
22/11:30am 9.5 SSW 6 8 1026.0 - 0.0 - - - - - - -
22/11:00am 7.9 CALM 0 0 1026.5 - 0.0 - - - - - - -
22/10:30am 5.7 CALM 0 0 1026.8 - 0.0 - - - - - - -
22/10:00am 4.3 SSW 1 4 1027.0 - 0.0 - - - - - - -
22/09:30am 3.0 SSW 4 5 1027.2 - 0.0 - - - - - - -
22/09:00am 1.7 SSW 4 5 1027.2 - 0.0 - - - - - - -
22/08:30am 0.6 SSW 4 5 1027.3 - 0.0 - - - - - - -
22/08:00am -0.1 SSW 4 5 1027.4 - 0.0 - - - - - - -
22/07:30am 0.2 SSW 5 6 1027.3 - 0.0 - - - - - - -
22/07:00am 0.5 SSW 4 5 1027.3 - 0.0 - - - - - - -
22/06:30am 0.6 SSW 4 5 1027.5 - 0.0 - - - - - - -
22/06:00am 1.2 SSW 5 6 1027.6 - 0.0 - - - - - - -
22/05:30am 1.2 SSW 4 7 1027.8 - 0.0 - - - - - - -
22/05:00am 1.2 SSW 6 7 1027.7 - 0.0 - - - - - - -
22/04:30am 0.5 SSW 6 7 1027.8 - 0.0 - - - - - - -
22/04:00am -0.4 SSW 5 5 1028.0 - 0.0 - - - - - - -
22/03:30am 0.3 SSW 1 5 1027.9 - 0.0 - - - - - - -
22/03:00am 0.6 SSW 3 4 1028.2 - 0.0 - - - - - - -
22/02:30am 1.2 SSW 2 4 1028.5 - 0.0 - - - - - - -
22/02:00am 1.0 SSW 4 5 1028.5 - 0.0 - - - - - - -
22/01:30am 0.8 SSW 4 5 1028.6 - 0.0 - - - - - - -
22/01:00am 0.4 SSW 5 6 1028.8 - 0.0 - - - - - - -
22/12:30am -0.2 SSW 4 5 1029.0 - 0.0 - - - - - - -
22/12:00am 0.5 SSW 3 5 1029.3 - 0.0 - - - - - - -
 
Date/Time
EST
Temp
°C
Wind Pressure Rain since
9am
mm
Weather Cloud Vis
km
Sea
Height
m
Swell
Dir  Spd
kts
Gust
kts
hPa Trend Height
m
Period
s
Dir
21/11:30pm 0.8 SSW 4 5 1029.3 - 0.0 - - - - - - -
21/11:00pm 1.4 SSW 5 6 1029.7 - 0.0 - - - - - - -
21/10:30pm 1.4 CALM 0 0 1029.8 - 0.0 - - - - - - -
21/10:00pm 2.0 SSW 3 4 1029.8 - 0.0 - - - - - - -
21/09:30pm 2.8 SSW 4 4 1029.7 - 0.0 - - - - - - -
21/09:00pm 3.8 SSW 3 4 1029.6 - 0.0 - - - - - - -
21/08:30pm 5.4 CALM 0 3 1029.5 - 0.0 - - - - - - -
21/08:00pm 6.0 SSW 6 8 1029.5 - 0.0 - - - - - - -
21/07:30pm 6.4 SSW 4 5 1029.4 - 0.0 - - - - - - -
21/07:00pm 7.3 SSW 5 6 1029.3 - 0.0 - - - - - - -

Other Formats:

Comma delimited format used in spreadsheet applications
http://www.bom.gov.au/fwo/IDT60701/IDT60701.94953.axf

JavaScript Object Notation format (JSON) in row-major order
http://www.bom.gov.au/fwo/IDT60701/IDT60701.94953.json